Time;durP1;ratioP1;P1;durP2;ratioP2;P2;SDS_P1;SDS_P2;PMS_P1;PMS_P2;Temp;Humidity;BMP_temperature;BMP_pressure;BME280_temperature;BME280_humidity;BME280_pressure;Samples;Min_cycle;Max_cycle;Signal;HPM_P1;HPM_P2
2023/12/20 05:06:16;;;;;;;0.30;0.30;;;6.30;99.90;;;;;;5484091;23;20286;-69
2023/12/20 05:08:42;;;;;;;0.30;0.30;;;6.30;99.90;;;;;;4976593;28;20571;-66
2023/12/20 05:11:07;;;;;;;0.40;0.40;;;6.30;99.90;;;;;;4976643;28;20175;-65
2023/12/20 05:13:33;;;;;;;0.40;0.40;;;6.30;99.90;;;;;;4976723;28;20233;-68
2023/12/20 05:15:58;;;;;;;0.40;0.40;;;6.30;99.90;;;;;;4976186;28;20196;-69
2023/12/20 05:18:24;;;;;;;0.30;0.30;;;6.30;99.90;;;;;;4976409;28;20176;-69
2023/12/20 05:20:51;;;;;;;0.30;0.30;;;6.30;99.90;;;;;;4976450;28;20587;-66
2023/12/20 05:23:17;;;;;;;0.30;0.30;;;6.40;99.90;;;;;;4976286;28;20222;-68
2023/12/20 05:25:42;;;;;;;0.30;0.30;;;6.40;99.90;;;;;;4975967;28;20191;-68
2023/12/20 05:28:08;;;;;;;0.30;0.30;;;6.40;99.90;;;;;;4976809;28;20423;-66
2023/12/20 05:30:34;;;;;;;0.40;0.40;;;6.40;99.90;;;;;;4976166;28;20640;-68
2023/12/20 05:32:59;;;;;;;0.33;0.33;;;6.50;99.90;;;;;;4976483;28;20182;-68
2023/12/20 05:35:25;;;;;;;0.30;0.30;;;6.40;99.90;;;;;;4974669;28;20218;-66
2023/12/20 05:37:50;;;;;;;0.33;0.33;;;6.40;99.90;;;;;;4976097;28;20175;-66
2023/12/20 05:40:16;;;;;;;0.30;0.30;;;6.50;99.90;;;;;;4976028;28;20209;-68
2023/12/20 05:42:41;;;;;;;0.40;0.40;;;6.40;99.90;;;;;;4975893;28;20198;-66
2023/12/20 05:45:07;;;;;;;0.33;0.33;;;6.40;99.90;;;;;;4975464;28;20254;-68
2023/12/20 05:47:33;;;;;;;0.30;0.30;;;6.40;99.90;;;;;;4975916;28;20168;-66
2023/12/20 05:49:58;;;;;;;0.30;0.30;;;6.40;99.90;;;;;;4975886;28;20176;-67
2023/12/20 05:52:24;;;;;;;0.30;0.30;;;6.40;99.90;;;;;;4975646;28;20189;-67
2023/12/20 05:54:50;;;;;;;0.30;0.30;;;6.40;99.90;;;;;;4973998;28;20183;-67
2023/12/20 05:57:15;;;;;;;0.30;0.30;;;6.40;99.90;;;;;;4975798;28;20187;-67
2023/12/20 05:59:41;;;;;;;0.47;0.47;;;6.40;99.90;;;;;;4975539;28;20231;-68
2023/12/20 06:02:07;;;;;;;0.30;0.30;;;6.40;99.90;;;;;;4976010;28;20175;-69
2023/12/20 06:04:32;;;;;;;0.30;0.30;;;6.40;99.90;;;;;;4976258;28;20628;-68
2023/12/20 06:06:59;;;;;;;0.30;0.30;;;6.40;99.90;;;;;;4975212;28;20211;-68
2023/12/20 06:09:26;;;;;;;0.40;0.40;;;6.40;99.90;;;;;;4975224;28;20434;-66
2023/12/20 06:11:52;;;;;;;0.40;0.40;;;6.40;99.90;;;;;;4975175;28;20770;-68
2023/12/20 06:14:17;;;;;;;0.40;0.40;;;6.40;99.90;;;;;;4973343;28;20212;-69
2023/12/20 06:16:43;;;;;;;0.50;0.50;;;6.40;99.90;;;;;;4956644;28;20255;-68
2023/12/20 06:19:08;;;;;;;0.40;0.40;;;6.30;99.90;;;;;;4961059;28;20666;-66
2023/12/20 06:21:34;;;;;;;0.20;0.20;;;6.30;99.90;;;;;;4974914;28;20198;-67
2023/12/20 06:24:00;;;;;;;0.40;0.40;;;6.30;99.90;;;;;;4975189;28;20199;-65
2023/12/20 06:26:25;;;;;;;0.30;0.30;;;6.40;99.90;;;;;;4970768;28;20200;-64
2023/12/20 06:28:51;;;;;;;0.40;0.40;;;6.40;99.90;;;;;;4960270;28;20231;-66
2023/12/20 06:31:17;;;;;;;0.30;0.30;;;6.40;99.90;;;;;;4955696;28;20255;-64
2023/12/20 06:33:43;;;;;;;0.40;0.40;;;6.40;99.90;;;;;;4955838;28;20176;-67
2023/12/20 06:36:13;;;;;;;0.40;0.40;;;6.40;99.90;;;;;;4953833;29;20475;-66
2023/12/20 06:38:38;;;;;;;0.40;0.40;;;6.40;99.90;;;;;;4955761;28;20191;-65
2023/12/20 06:41:04;;;;;;;0.30;0.30;;;6.40;99.90;;;;;;4955661;28;20172;-67
2023/12/20 06:43:31;;;;;;;0.40;0.40;;;6.40;99.90;;;;;;4955772;28;20221;-67
2023/12/20 06:45:56;;;;;;;0.30;0.30;;;6.40;99.90;;;;;;4961501;28;20623;-68
2023/12/20 06:48:22;;;;;;;0.30;0.30;;;6.40;99.90;;;;;;4974691;28;20252;-68
2023/12/20 06:50:48;;;;;;;0.30;0.30;;;6.50;99.90;;;;;;4974299;28;20419;-68
2023/12/20 06:53:13;;;;;;;0.40;0.40;;;6.50;99.90;;;;;;4968543;28;20201;-68
2023/12/20 06:55:39;;;;;;;0.30;0.30;;;6.50;99.90;;;;;;4960989;28;20209;-69
2023/12/20 06:58:04;;;;;;;0.30;0.30;;;6.50;99.90;;;;;;4971584;28;20179;-69
2023/12/20 07:00:30;;;;;;;0.37;0.37;;;6.60;99.90;;;;;;4962674;28;20231;-68
2023/12/20 07:02:56;;;;;;;0.30;0.30;;;6.60;99.90;;;;;;4955451;28;20662;-67
2023/12/20 07:05:22;;;;;;;0.50;0.50;;;6.50;99.90;;;;;;4954936;28;20267;-66
2023/12/20 07:07:48;;;;;;;0.30;0.30;;;6.50;99.90;;;;;;4954917;28;20188;-68
2023/12/20 07:10:14;;;;;;;0.30;0.30;;;6.50;99.90;;;;;;4955114;28;20412;-67
2023/12/20 07:12:39;;;;;;;0.30;0.30;;;6.60;99.90;;;;;;4955171;28;20539;-66
2023/12/20 07:15:07;;;;;;;0.30;0.30;;;6.50;99.90;;;;;;4954212;28;20201;-68
2023/12/20 07:17:33;;;;;;;0.40;0.40;;;6.50;99.90;;;;;;4954943;28;20168;-66
2023/12/20 07:20:03;;;;;;;0.38;0.38;;;6.60;99.90;;;;;;4954868;29;20275;-68
2023/12/20 07:22:31;;;;;;;0.30;0.30;;;6.60;99.90;;;;;;4954688;28;20168;-66
2023/12/20 07:24:58;;;;;;;0.30;0.30;;;6.60;99.90;;;;;;4954451;28;20172;-69
2023/12/20 07:27:24;;;;;;;0.30;0.30;;;6.60;99.90;;;;;;4958550;28;20177;-69
2023/12/20 07:29:50;;;;;;;0.35;0.35;;;6.60;99.90;;;;;;4968708;28;20183;-66
2023/12/20 07:32:15;;;;;;;0.40;0.40;;;6.60;99.90;;;;;;4974112;28;20510;-66
2023/12/20 07:34:41;;;;;;;0.40;0.40;;;6.60;99.90;;;;;;4973785;28;20177;-66
2023/12/20 07:37:06;;;;;;;0.30;0.30;;;6.60;99.90;;;;;;4974393;28;20279;-68
2023/12/20 07:39:32;;;;;;;0.40;0.40;;;6.60;99.90;;;;;;4974102;28;20200;-67
2023/12/20 07:41:57;;;;;;;0.40;0.40;;;6.60;99.90;;;;;;4974192;28;20168;-68
2023/12/20 07:44:23;;;;;;;0.37;0.37;;;6.70;99.90;;;;;;4973994;28;20215;-65
2023/12/20 07:46:49;;;;;;;0.37;0.37;;;6.70;99.90;;;;;;4974093;28;20192;-68
2023/12/20 07:49:14;;;;;;;0.30;0.30;;;6.70;99.90;;;;;;4974183;28;20632;-67
2023/12/20 07:51:40;;;;;;;0.30;0.30;;;6.70;99.90;;;;;;4974115;28;20183;-67
2023/12/20 07:54:07;;;;;;;0.30;0.30;;;6.70;99.90;;;;;;4974068;28;20176;-67
2023/12/20 07:56:33;;;;;;;0.30;0.30;;;6.70;99.90;;;;;;4973953;28;20558;-67
2023/12/20 07:58:59;;;;;;;0.40;0.40;;;6.70;99.90;;;;;;4974007;28;20199;-66
2023/12/20 08:01:24;;;;;;;0.30;0.30;;;6.70;99.90;;;;;;4972708;28;20551;-67
2023/12/20 08:03:50;;;;;;;0.40;0.40;;;6.70;99.90;;;;;;4973999;28;20640;-67
2023/12/20 08:06:17;;;;;;;0.30;0.30;;;6.70;99.90;;;;;;4974022;28;20211;-66
2023/12/20 08:08:42;;;;;;;0.30;0.30;;;6.70;99.90;;;;;;4977539;28;20407;-66
2023/12/20 08:11:08;;;;;;;0.30;0.30;;;6.70;99.90;;;;;;4977627;28;20234;-66
2023/12/20 08:13:34;;;;;;;0.40;0.40;;;6.70;99.90;;;;;;4977443;28;20172;-67
2023/12/20 08:15:59;;;;;;;0.30;0.30;;;6.70;99.90;;;;;;4976939;28;20191;-67
2023/12/20 08:18:25;;;;;;;0.43;0.43;;;6.70;99.90;;;;;;4977678;28;20258;-68
2023/12/20 08:20:52;;;;;;;0.30;0.30;;;6.70;99.90;;;;;;4977224;28;20675;-68
2023/12/20 08:23:20;;;;;;;0.30;0.30;;;6.70;99.90;;;;;;4977363;28;20171;-67
2023/12/20 08:25:46;;;;;;;0.30;0.30;;;6.70;99.90;;;;;;4977018;28;20180;-65
2023/12/20 08:28:11;;;;;;;0.30;0.30;;;6.80;99.90;;;;;;4977175;28;20172;-70
2023/12/20 08:30:37;;;;;;;0.40;0.40;;;6.90;99.90;;;;;;4976914;28;20179;-66
2023/12/20 08:33:03;;;;;;;0.30;0.30;;;7.00;99.90;;;;;;4977210;28;20172;-67
2023/12/20 08:35:28;;;;;;;0.30;0.30;;;6.90;99.90;;;;;;4976629;28;20283;-67
2023/12/20 08:37:54;;;;;;;0.37;0.37;;;6.80;99.90;;;;;;4977023;28;20414;-67
2023/12/20 08:40:20;;;;;;;0.30;0.30;;;6.70;99.90;;;;;;4977193;28;20202;-66
2023/12/20 08:42:46;;;;;;;0.30;0.30;;;6.70;99.90;;;;;;4977149;28;20180;-66
2023/12/20 08:45:11;;;;;;;0.30;0.30;;;6.60;99.90;;;;;;4976675;28;20551;-68
2023/12/20 08:47:37;;;;;;;0.40;0.40;;;6.50;99.90;;;;;;4976789;28;20195;-66
2023/12/20 08:50:03;;;;;;;0.30;0.30;;;6.40;99.90;;;;;;4976714;28;20176;-68
2023/12/20 08:52:29;;;;;;;0.40;0.40;;;6.40;99.90;;;;;;4977335;28;20203;-65
2023/12/20 08:54:55;;;;;;;0.30;0.30;;;6.50;99.90;;;;;;4976317;28;20172;-67
2023/12/20 08:57:21;;;;;;;0.30;0.30;;;6.50;99.90;;;;;;4976428;28;20227;-67
2023/12/20 08:59:47;;;;;;;0.30;0.30;;;6.60;99.90;;;;;;4976403;28;20490;-67
2023/12/20 09:02:14;;;;;;;0.30;0.30;;;6.90;99.90;;;;;;4976740;28;20172;-66
2023/12/20 09:04:39;;;;;;;0.38;0.38;;;7.50;99.90;;;;;;4975966;28;20187;-69
2023/12/20 09:07:05;;;;;;;0.30;0.30;;;8.30;99.90;;;;;;4976380;28;20210;-68
2023/12/20 09:09:32;;;;;;;0.30;0.30;;;9.00;99.90;;;;;;4976551;28;20583;-68
2023/12/20 09:11:57;;;;;;;0.30;0.30;;;9.90;99.90;;;;;;4976660;28;20199;-68
2023/12/20 09:14:23;;;;;;;0.33;0.33;;;10.60;99.90;;;;;;4976291;28;20440;-67
2023/12/20 09:16:51;;;;;;;0.30;0.30;;;11.30;99.90;;;;;;4976570;28;20200;-68
2023/12/20 09:19:17;;;;;;;0.30;0.30;;;11.90;99.90;;;;;;4974995;28;20192;-67
2023/12/20 09:21:42;;;;;;;0.30;0.20;;;12.40;99.90;;;;;;4976285;28;20810;-67
2023/12/20 09:24:08;;;;;;;0.30;0.30;;;12.70;99.90;;;;;;4976059;28;20539;-68
2023/12/20 09:26:34;;;;;;;0.30;0.30;;;13.00;99.90;;;;;;4976267;28;20184;-68
2023/12/20 09:29:00;;;;;;;0.30;0.30;;;13.40;99.90;;;;;;4976383;28;20412;-67
2023/12/20 09:31:25;;;;;;;0.30;0.30;;;13.80;99.90;;;;;;4976021;28;20340;-68
2023/12/20 09:33:51;;;;;;;0.50;0.50;;;14.10;99.90;;;;;;4976073;28;20174;-68
2023/12/20 09:36:16;;;;;;;0.30;0.30;;;14.50;99.90;;;;;;4975712;28;20206;-68
2023/12/20 09:38:42;;;;;;;0.30;0.30;;;14.60;99.90;;;;;;4976545;28;20602;-67
2023/12/20 09:41:07;;;;;;;0.30;0.30;;;14.80;99.50;;;;;;4976168;28;20238;-68
2023/12/20 09:43:37;;;;;;;0.30;0.30;;;14.80;99.30;;;;;;4975743;28;20252;-66
2023/12/20 09:46:07;;;;;;;0.30;0.30;;;15.00;98.80;;;;;;4975479;28;20200;-68
2023/12/20 09:48:33;;;;;;;1.00;0.40;;;15.10;97.60;;;;;;4975720;28;20411;-67
2023/12/20 09:50:59;;;;;;;0.30;0.30;;;15.10;97.20;;;;;;4976416;28;20426;-67
2023/12/20 09:53:29;;;;;;;0.30;0.30;;;15.00;96.40;;;;;;4975785;28;20402;-67
2023/12/20 09:56:01;;;;;;;0.30;0.20;;;15.00;96.30;;;;;;4975472;28;20550;-68
2023/12/20 09:58:27;;;;;;;0.30;0.30;;;14.90;95.60;;;;;;4975899;28;20400;-68
2023/12/20 10:00:55;;;;;;;0.30;0.30;;;14.80;96.00;;;;;;4975398;28;20439;-69
2023/12/20 10:03:25;;;;;;;0.30;0.30;;;14.80;95.80;;;;;;4975968;28;20396;-69
2023/12/20 10:05:56;;;;;;;0.30;0.20;;;14.80;96.30;;;;;;4975108;28;20422;-67
2023/12/20 10:08:22;;;;;;;3.03;0.60;;;14.60;95.50;;;;;;4975484;28;20374;-69
2023/12/20 10:10:48;;;;;;;0.30;0.20;;;14.60;95.40;;;;;;4975082;28;20404;-68
2023/12/20 10:13:15;;;;;;;0.30;0.30;;;14.80;95.50;;;;;;4974368;28;20374;-66
2023/12/20 10:15:41;;;;;;;0.30;0.30;;;14.90;95.20;;;;;;4974955;28;20564;-69
2023/12/20 10:18:06;;;;;;;0.30;0.20;;;14.90;94.60;;;;;;4975651;28;20404;-66
2023/12/20 10:20:32;;;;;;;0.30;0.30;;;14.80;94.30;;;;;;4975462;28;20231;-69
2023/12/20 10:22:59;;;;;;;0.30;0.30;;;14.70;94.20;;;;;;4974094;28;20210;-68
2023/12/20 10:25:25;;;;;;;0.30;0.20;;;14.60;94.40;;;;;;4974622;28;20242;-69
2023/12/20 10:28:17;;;;;;;0.30;0.20;;;14.40;94.50;;;;;;4974955;28;20435;-66
2023/12/20 10:30:43;;;;;;;1.47;0.50;;;14.40;94.40;;;;;;4974790;28;20761;-68
2023/12/20 10:33:09;;;;;;;0.30;0.30;;;14.30;94.60;;;;;;4989268;28;20411;-67
2023/12/20 10:35:36;;;;;;;0.30;0.30;;;14.30;94.30;;;;;;4994065;28;20195;-69
2023/12/20 10:38:05;;;;;;;0.30;0.30;;;14.30;94.40;;;;;;4993894;28;20377;-68
2023/12/20 10:40:30;;;;;;;0.30;0.30;;;14.30;95.10;;;;;;4994513;28;20453;-69
2023/12/20 10:42:58;;;;;;;0.30;0.30;;;14.30;94.60;;;;;;4993312;28;20393;-69
2023/12/20 10:45:23;;;;;;;0.30;0.30;;;14.10;93.60;;;;;;4994115;28;20416;-68
2023/12/20 10:47:50;;;;;;;0.30;0.30;;;13.90;93.10;;;;;;4994193;28;20750;-68
2023/12/20 10:50:16;;;;;;;0.30;0.30;;;13.70;93.60;;;;;;4994526;28;20286;-69
2023/12/20 10:52:44;;;;;;;0.37;0.37;;;13.30;94.00;;;;;;4994280;28;20936;-71
2023/12/20 10:55:10;;;;;;;0.37;0.37;;;12.80;94.50;;;;;;4993739;28;20567;-68
2023/12/20 10:57:36;;;;;;;2.10;2.00;;;12.30;94.90;;;;;;4994203;28;20820;-69
2023/12/20 11:00:05;;;;;;;0.30;0.30;;;11.90;96.00;;;;;;4993967;28;20464;-68
2023/12/20 11:02:39;;;;;;;0.30;0.30;;;11.70;96.20;;;;;;4994315;28;20410;-69
2023/12/20 11:05:22;;;;;;;0.30;0.30;;;11.60;96.70;;;;;;4993808;28;20438;-68
2023/12/20 11:07:53;;;;;;;0.30;0.20;;;11.40;96.90;;;;;;4993796;28;20436;-68
2023/12/20 11:10:54;;;;;;;0.30;0.30;;;11.10;96.90;;;;;;4974368;28;20414;-69
2023/12/20 11:13:25;;;;;;;0.30;0.30;;;10.60;97.50;;;;;;4964084;28;20401;-68
2023/12/20 11:15:50;;;;;;;0.30;0.20;;;10.20;98.70;;;;;;4972687;28;20473;-68
2023/12/20 11:18:16;;;;;;;0.30;0.30;;;9.80;99.90;;;;;;4973021;28;20510;-68
2023/12/20 11:20:42;;;;;;;0.60;0.60;;;9.70;99.90;;;;;;4974145;28;20666;-68
2023/12/20 11:23:09;;;;;;;0.30;0.30;;;9.60;99.90;;;;;;4973006;28;20181;-68
2023/12/20 11:25:56;;;;;;;0.30;0.30;;;9.50;99.90;;;;;;4972538;28;20469;-68
2023/12/20 11:28:23;;;;;;;0.30;0.30;;;9.30;99.90;;;;;;4972883;28;20422;-68
2023/12/20 11:30:56;;;;;;;0.30;0.30;;;9.00;99.90;;;;;;4974027;28;20182;-69
2023/12/20 11:33:23;;;;;;;0.30;0.30;;;8.80;99.90;;;;;;4974113;28;20766;-67
2023/12/20 11:35:49;;;;;;;0.30;0.30;;;8.70;99.90;;;;;;4973631;28;20207;-66
2023/12/20 11:38:15;;;;;;;0.30;0.30;;;8.60;99.90;;;;;;4972986;28;20648;-67
2023/12/20 11:40:42;;;;;;;0.40;0.40;;;8.50;99.90;;;;;;4974178;28;20256;-67
2023/12/20 11:43:07;;;;;;;0.30;0.30;;;8.50;99.90;;;;;;4978313;28;20403;-68
2023/12/20 11:45:34;;;;;;;0.40;0.40;;;8.40;99.90;;;;;;4977663;28;20278;-69
2023/12/20 11:48:04;;;;;;;0.30;0.30;;;8.50;99.90;;;;;;4978015;28;20177;-68
2023/12/20 11:50:30;;;;;;;0.40;0.40;;;8.50;99.90;;;;;;4976572;28;20228;-69
2023/12/20 11:52:56;;;;;;;0.30;0.30;;;8.40;99.90;;;;;;4977595;28;20180;-68
2023/12/20 11:55:23;;;;;;;0.30;0.30;;;8.30;99.90;;;;;;4977438;28;20197;-68
2023/12/20 11:57:50;;;;;;;0.30;0.30;;;8.20;99.90;;;;;;4977669;28;20173;-68
2023/12/20 12:00:17;;;;;;;0.30;0.30;;;8.20;99.90;;;;;;4977899;28;20200;-68
2023/12/20 12:02:43;;;;;;;0.30;0.30;;;8.10;99.90;;;;;;4976643;28;20546;-68
2023/12/20 12:05:08;;;;;;;0.30;0.30;;;8.00;99.90;;;;;;4976193;28;20200;-68
2023/12/20 12:07:35;;;;;;;0.30;0.30;;;7.90;99.90;;;;;;4977688;28;20191;-69
2023/12/20 12:10:00;;;;;;;0.40;0.40;;;7.80;99.90;;;;;;4977572;28;20176;-70
2023/12/20 12:12:27;;;;;;;0.40;0.40;;;7.70;99.90;;;;;;4977580;28;20176;-69
2023/12/20 12:14:54;;;;;;;0.30;0.30;;;7.60;99.90;;;;;;4976042;28;20184;-68
2023/12/20 12:17:20;;;;;;;0.30;0.30;;;7.70;99.90;;;;;;4977603;28;20255;-70
2023/12/20 12:19:45;;;;;;;0.30;0.30;;;7.70;99.90;;;;;;4977331;28;20196;-68
2023/12/20 12:22:13;;;;;;;0.37;0.37;;;7.80;99.90;;;;;;4977349;28;20708;-68
2023/12/20 12:24:42;;;;;;;0.40;0.40;;;7.80;99.90;;;;;;4973844;28;20465;-69
2023/12/20 12:27:08;;;;;;;0.30;0.30;;;7.80;99.90;;;;;;4957803;28;20204;-69
2023/12/20 12:29:35;;;;;;;0.30;0.30;;;7.90;99.90;;;;;;4958039;28;20176;-69
2023/12/20 12:32:04;;;;;;;0.30;0.30;;;8.00;99.90;;;;;;4958268;28;20172;-68
2023/12/20 12:34:29;;;;;;;0.30;0.30;;;8.10;99.90;;;;;;4956319;28;20179;-68
2023/12/20 12:36:57;;;;;;;0.40;0.40;;;8.10;99.90;;;;;;4957974;28;20343;-68
2023/12/20 12:39:25;;;;;;;0.30;0.30;;;8.20;99.90;;;;;;4957429;28;20289;-68
2023/12/20 12:41:50;;;;;;;0.30;0.30;;;8.20;99.90;;;;;;4957768;28;20166;-68
2023/12/20 12:44:17;;;;;;;0.40;0.40;;;8.30;99.90;;;;;;4957383;28;20266;-70
2023/12/20 12:46:44;;;;;;;0.30;0.30;;;8.30;99.90;;;;;;4967358;28;20200;-69
2023/12/20 12:49:09;;;;;;;0.30;0.30;;;8.30;99.90;;;;;;4976699;28;20222;-69
2023/12/20 12:51:35;;;;;;;0.30;0.30;;;8.30;99.90;;;;;;4976676;28;20259;-68
2023/12/20 12:54:01;;;;;;;0.30;0.30;;;8.40;99.90;;;;;;4976470;28;20176;-67
2023/12/20 12:56:26;;;;;;;0.30;0.30;;;8.40;99.90;;;;;;4976152;28;20271;-68
2023/12/20 12:58:52;;;;;;;0.30;0.30;;;8.50;99.90;;;;;;4976674;28;20168;-68
2023/12/20 13:01:18;;;;;;;0.30;0.20;;;8.50;99.90;;;;;;4976401;28;20247;-68
2023/12/20 13:03:43;;;;;;;0.30;0.30;;;8.40;99.90;;;;;;4975415;28;20538;-68
2023/12/20 13:06:09;;;;;;;0.30;0.30;;;8.40;99.90;;;;;;4976054;28;20688;-68
2023/12/20 13:08:34;;;;;;;0.30;0.30;;;8.40;99.90;;;;;;4976924;28;20576;-67
2023/12/20 13:11:00;;;;;;;0.30;0.30;;;8.20;99.90;;;;;;4976720;28;20176;-68
2023/12/20 13:13:29;;;;;;;0.40;0.40;;;8.20;99.90;;;;;;4976650;28;20172;-69
2023/12/20 13:15:55;;;;;;;0.30;0.30;;;8.20;99.90;;;;;;4974923;28;20440;-67
2023/12/20 13:18:22;;;;;;;0.80;0.80;;;8.20;99.90;;;;;;4976331;28;20255;-67
2023/12/20 13:20:48;;;;;;;0.57;0.57;;;8.10;99.90;;;;;;4976412;28;20195;-68
2023/12/20 13:23:14;;;;;;;0.30;0.30;;;8.20;99.90;;;;;;4976506;28;20191;-68
2023/12/20 13:25:41;;;;;;;0.30;0.30;;;8.10;99.90;;;;;;4975867;28;20478;-70
2023/12/20 13:28:06;;;;;;;0.30;0.30;;;8.10;99.90;;;;;;4976261;28;20396;-68
2023/12/20 13:30:32;;;;;;;0.30;0.30;;;8.10;99.90;;;;;;4974883;28;20172;-68
2023/12/20 13:32:58;;;;;;;0.33;0.33;;;8.10;99.90;;;;;;4974987;28;20179;-69
2023/12/20 13:35:23;;;;;;;0.30;0.30;;;8.10;99.90;;;;;;4974739;28;20195;-70
2023/12/20 13:37:49;;;;;;;0.40;0.40;;;8.10;99.90;;;;;;4975065;28;20172;-66
2023/12/20 13:40:14;;;;;;;0.30;0.30;;;8.10;99.90;;;;;;4973434;28;20208;-70
2023/12/20 13:42:40;;;;;;;0.30;0.30;;;8.10;99.90;;;;;;4974685;28;20168;-70
2023/12/20 13:45:07;;;;;;;0.30;0.30;;;8.10;99.90;;;;;;4974507;28;20208;-68
2023/12/20 13:47:33;;;;;;;0.30;0.28;;;8.00;99.90;;;;;;4974700;28;20168;-70
2023/12/20 13:49:58;;;;;;;0.30;0.30;;;8.00;99.90;;;;;;4975264;28;20659;-69
2023/12/20 13:52:24;;;;;;;0.30;0.30;;;8.00;99.90;;;;;;4976506;28;20958;-69
2023/12/20 13:54:49;;;;;;;0.30;0.30;;;7.90;99.90;;;;;;4975498;28;20180;-68
2023/12/20 13:57:15;;;;;;;0.30;0.30;;;7.90;99.90;;;;;;4975744;28;20182;-70
2023/12/20 13:59:41;;;;;;;0.30;0.30;;;7.90;99.90;;;;;;4975518;28;20281;-70
2023/12/20 14:02:06;;;;;;;0.30;0.30;;;7.80;99.90;;;;;;4975779;28;20187;-70
2023/12/20 14:04:32;;;;;;;0.30;0.30;;;7.80;99.90;;;;;;4974656;28;20182;-68
2023/12/20 14:06:58;;;;;;;0.40;0.40;;;7.70;99.90;;;;;;4975368;28;20664;-69
2023/12/20 14:09:24;;;;;;;0.33;0.33;;;7.70;99.90;;;;;;4975629;28;20172;-69
2023/12/20 14:11:49;;;;;;;0.30;0.30;;;7.60;99.90;;;;;;4975641;28;20259;-67
2023/12/20 14:14:15;;;;;;;0.30;0.30;;;7.50;99.90;;;;;;4975230;28;20254;-68
2023/12/20 14:16:42;;;;;;;0.40;0.40;;;7.40;99.90;;;;;;4975395;28;20202;-68
2023/12/20 14:19:09;;;;;;;0.40;0.40;;;7.40;99.90;;;;;;4975525;28;20196;-70
2023/12/20 14:21:35;;;;;;;0.30;0.30;;;7.40;99.90;;;;;;4973927;28;20175;-66
2023/12/20 14:24:00;;;;;;;0.30;0.30;;;7.40;99.90;;;;;;4975796;28;20161;-69
2023/12/20 14:26:27;;;;;;;0.40;0.40;;;7.40;99.90;;;;;;4974958;28;20192;-68
2023/12/20 14:28:53;;;;;;;0.30;0.30;;;7.40;99.90;;;;;;4974184;28;20179;-68
2023/12/20 14:31:19;;;;;;;0.30;0.30;;;7.40;99.90;;;;;;4975335;28;20165;-67
2023/12/20 14:33:46;;;;;;;0.97;0.90;;;7.30;99.90;;;;;;4975213;28;20262;-69
2023/12/20 14:36:11;;;;;;;0.30;0.30;;;7.20;99.90;;;;;;4974826;28;20567;-69
2023/12/20 14:38:37;;;;;;;0.30;0.30;;;7.20;99.90;;;;;;4975076;28;20202;-68
2023/12/20 14:41:04;;;;;;;0.30;0.30;;;7.20;99.90;;;;;;4975281;28;20203;-67
2023/12/20 14:43:29;;;;;;;0.35;0.35;;;7.20;99.90;;;;;;4974951;28;21009;-68
2023/12/20 14:45:55;;;;;;;0.30;0.30;;;7.10;99.90;;;;;;4974634;28;20277;-69
2023/12/20 14:48:21;;;;;;;0.30;0.30;;;7.10;99.90;;;;;;4974994;28;20576;-69
2023/12/20 14:50:48;;;;;;;0.30;0.30;;;7.10;99.90;;;;;;4974849;28;20618;-68
2023/12/20 14:53:16;;;;;;;0.70;0.70;;;7.00;99.90;;;;;;4974862;28;20241;-68
2023/12/20 14:55:42;;;;;;;0.30;0.20;;;7.00;99.90;;;;;;4974539;28;20184;-69
2023/12/20 14:58:08;;;;;;;0.30;0.30;;;7.00;99.90;;;;;;4975024;28;20585;-68
2023/12/20 15:00:34;;;;;;;0.30;0.30;;;7.00;99.90;;;;;;4974619;28;20455;-68
2023/12/20 15:02:59;;;;;;;0.30;0.30;;;6.90;99.90;;;;;;4974776;28;20446;-67
2023/12/20 15:05:26;;;;;;;0.30;0.20;;;6.90;99.90;;;;;;4974381;28;20180;-68
2023/12/20 15:07:52;;;;;;;0.30;0.30;;;6.90;99.90;;;;;;4974703;28;20752;-68
2023/12/20 15:10:18;;;;;;;0.30;0.30;;;6.90;99.90;;;;;;4974697;28;20281;-68
2023/12/20 15:12:45;;;;;;;0.30;0.30;;;6.80;99.90;;;;;;4974962;28;20765;-66
2023/12/20 15:15:10;;;;;;;0.40;0.40;;;6.70;99.90;;;;;;4974318;28;20442;-68
2023/12/20 15:17:36;;;;;;;0.30;0.30;;;6.70;99.90;;;;;;4974390;28;20168;-68
2023/12/20 15:20:04;;;;;;;0.33;0.33;;;6.70;99.90;;;;;;4974106;28;20454;-69
2023/12/20 15:22:30;;;;;;;0.30;0.30;;;6.70;99.90;;;;;;4973250;28;20270;-68
2023/12/20 15:24:55;;;;;;;0.30;0.30;;;6.60;99.90;;;;;;4972858;28;20261;-67
2023/12/20 15:27:21;;;;;;;0.47;0.47;;;6.60;99.90;;;;;;4974384;28;20686;-67
2023/12/20 15:29:47;;;;;;;0.50;0.50;;;6.60;99.90;;;;;;4974596;28;20168;-67
2023/12/20 15:32:12;;;;;;;0.40;0.40;;;6.60;99.90;;;;;;4974475;28;20176;-69
2023/12/20 15:34:38;;;;;;;0.30;0.30;;;6.50;99.90;;;;;;4974247;28;20270;-67
2023/12/20 15:37:04;;;;;;;0.30;0.30;;;6.40;99.90;;;;;;4974223;28;20317;-69
2023/12/20 15:39:29;;;;;;;0.30;0.30;;;6.40;99.90;;;;;;4974468;28;20674;-69
2023/12/20 15:41:55;;;;;;;0.30;0.30;;;6.40;99.90;;;;;;4974229;28;20179;-68
2023/12/20 15:44:20;;;;;;;0.30;0.30;;;6.40;99.90;;;;;;4974075;28;20569;-68
2023/12/20 15:46:46;;;;;;;0.50;0.50;;;6.40;99.90;;;;;;4973958;28;20725;-68
2023/12/20 15:49:12;;;;;;;0.30;0.20;;;6.50;99.90;;;;;;4974121;28;20232;-67
2023/12/20 15:51:38;;;;;;;0.30;0.30;;;6.50;99.90;;;;;;4974109;28;20218;-68
2023/12/20 15:54:06;;;;;;;0.30;0.30;;;6.50;99.90;;;;;;4972756;28;20180;-69
2023/12/20 15:56:32;;;;;;;0.40;0.40;;;6.50;99.90;;;;;;4974155;28;20194;-69
2023/12/20 15:58:59;;;;;;;0.40;0.40;;;6.50;99.90;;;;;;4974219;28;20532;-67
2023/12/20 16:01:25;;;;;;;0.40;0.40;;;6.50;99.90;;;;;;4972992;28;20203;-68
2023/12/20 16:03:51;;;;;;;0.40;0.40;;;6.50;99.90;;;;;;4973982;28;20278;-68
2023/12/20 16:06:16;;;;;;;0.30;0.30;;;6.50;99.90;;;;;;4973516;28;20582;-67
2023/12/20 16:08:42;;;;;;;0.30;0.30;;;6.60;99.90;;;;;;4974055;28;20176;-70
2023/12/20 16:11:08;;;;;;;0.60;0.60;;;6.50;99.90;;;;;;4972733;28;20517;-67
2023/12/20 16:13:33;;;;;;;0.30;0.30;;;6.50;99.90;;;;;;4973155;28;20419;-69
2023/12/20 16:16:03;;;;;;;0.30;0.30;;;6.50;99.90;;;;;;4973343;28;20545;-68
2023/12/20 16:18:29;;;;;;;0.30;0.30;;;6.40;99.90;;;;;;4973419;28;20579;-69
2023/12/20 16:20:55;;;;;;;0.30;0.30;;;6.40;99.90;;;;;;4973542;28;20210;-68
2023/12/20 16:23:20;;;;;;;0.30;0.30;;;6.40;99.90;;;;;;4974006;28;20179;-66
2023/12/20 16:25:46;;;;;;;0.30;0.30;;;6.40;99.90;;;;;;4973472;28;20204;-67
2023/12/20 16:28:11;;;;;;;0.30;0.30;;;6.40;99.90;;;;;;4974526;28;20183;-67
2023/12/20 16:30:37;;;;;;;0.40;0.40;;;6.40;99.90;;;;;;4977509;28;20179;-68
2023/12/20 16:33:03;;;;;;;0.30;0.30;;;6.40;99.90;;;;;;4977241;28;20662;-67
2023/12/20 16:35:28;;;;;;;0.30;0.30;;;6.40;99.90;;;;;;4976839;28;20199;-67
2023/12/20 16:37:54;;;;;;;0.40;0.40;;;6.40;99.90;;;;;;4976721;28;20417;-68
2023/12/20 16:40:24;;;;;;;0.30;0.30;;;6.40;99.90;;;;;;4976997;28;20207;-65
2023/12/20 16:42:55;;;;;;;0.30;0.30;;;6.40;99.90;;;;;;4977000;28;20238;-66
2023/12/20 16:45:21;;;;;;;0.30;0.30;;;6.40;99.90;;;;;;4976492;28;20187;-66
2023/12/20 16:47:47;;;;;;;0.30;0.30;;;6.40;99.90;;;;;;4976908;28;20583;-65
2023/12/20 16:50:13;;;;;;;0.30;0.30;;;6.40;99.90;;;;;;4976747;28;20259;-68
2023/12/20 16:52:39;;;;;;;0.30;0.30;;;6.40;99.90;;;;;;4976663;28;20620;-66
2023/12/20 16:55:05;;;;;;;0.40;0.40;;;6.40;99.90;;;;;;4976450;28;20294;-68
2023/12/20 16:57:31;;;;;;;0.30;0.30;;;6.40;99.90;;;;;;4976760;28;20180;-68
2023/12/20 16:59:56;;;;;;;0.30;0.30;;;6.40;99.90;;;;;;4976749;28;20227;-67
2023/12/20 17:02:22;;;;;;;0.40;0.40;;;6.40;99.90;;;;;;4976685;28;20640;-66
2023/12/20 17:04:48;;;;;;;0.30;0.30;;;6.40;99.90;;;;;;4976200;28;20659;-65
2023/12/20 17:07:14;;;;;;;0.38;0.38;;;6.30;99.90;;;;;;4976593;28;20282;-66
2023/12/20 17:09:40;;;;;;;0.43;0.43;;;6.30;99.90;;;;;;4976762;28;20226;-67
2023/12/20 17:12:07;;;;;;;0.30;0.30;;;6.30;99.90;;;;;;4976681;28;20210;-66
2023/12/20 17:14:33;;;;;;;0.30;0.30;;;6.30;99.90;;;;;;4976190;28;20171;-66
2023/12/20 17:16:59;;;;;;;0.30;0.30;;;6.30;99.90;;;;;;4976312;28;20652;-66
2023/12/20 17:19:24;;;;;;;0.33;0.33;;;6.30;99.90;;;;;;4976523;28;20935;-68
2023/12/20 17:21:53;;;;;;;0.30;0.30;;;6.30;99.90;;;;;;4964771;28;20250;-67
2023/12/20 17:24:19;;;;;;;0.30;0.30;;;6.30;99.90;;;;;;4964768;28;20175;-68
2023/12/20 17:26:44;;;;;;;0.33;0.33;;;6.40;99.90;;;;;;4965659;28;20274;-69
2023/12/20 17:29:10;;;;;;;0.30;0.30;;;6.30;99.90;;;;;;4966827;28;20200;-68
2023/12/20 17:31:36;;;;;;;0.30;0.30;;;6.40;99.90;;;;;;4964727;28;20179;-69
2023/12/20 17:34:01;;;;;;;0.30;0.30;;;6.40;99.90;;;;;;4966137;28;20175;-67
2023/12/20 17:36:27;;;;;;;0.30;0.30;;;6.40;99.90;;;;;;4965780;28;20194;-67
2023/12/20 17:38:52;;;;;;;0.30;0.30;;;6.30;99.90;;;;;;4962260;28;20191;-67
2023/12/20 17:41:18;;;;;;;0.30;0.30;;;6.30;99.90;;;;;;4966355;28;20172;-66
2023/12/20 17:43:44;;;;;;;0.40;0.40;;;6.30;99.90;;;;;;4961648;28;20177;-66
2023/12/20 17:46:09;;;;;;;0.50;0.50;;;6.30;99.90;;;;;;4965936;28;20206;-69
2023/12/20 17:48:35;;;;;;;0.37;0.37;;;6.30;99.90;;;;;;4971326;28;20176;-67
2023/12/20 17:51:01;;;;;;;0.30;0.30;;;6.30;99.90;;;;;;4970078;28;20176;-67
2023/12/20 17:53:27;;;;;;;0.38;0.38;;;6.30;99.90;;;;;;4959397;28;20208;-67
2023/12/20 17:55:52;;;;;;;0.40;0.40;;;6.40;99.90;;;;;;4960436;28;20227;-67